createdAt,value
2022-11-22T00:01:13.294Z,55.73
2022-11-22T00:03:39.581Z,55.31
2022-11-22T00:06:05.833Z,54.80
2022-11-22T00:08:33.338Z,55.24
2022-11-22T00:10:59.618Z,55.38
2022-11-22T00:13:25.893Z,55.04
2022-11-22T00:16:01.157Z,54.88
2022-11-22T00:18:28.040Z,55.33
2022-11-22T00:20:54.330Z,54.71
2022-11-22T00:23:20.602Z,55.92
2022-11-22T00:25:46.896Z,56.38
2022-11-22T00:28:13.172Z,55.27
2022-11-22T00:30:39.443Z,55.68
2022-11-22T00:33:05.712Z,56.32
2022-11-22T00:35:32.018Z,55.44
2022-11-22T00:37:58.286Z,55.25
2022-11-22T00:40:24.608Z,56.01
2022-11-22T00:42:50.901Z,55.67
2022-11-22T00:45:17.185Z,55.84
2022-11-22T00:47:43.465Z,55.84
2022-11-22T00:50:10.139Z,56.42
2022-11-22T00:52:36.531Z,55.96
2022-11-22T00:55:02.790Z,55.40
2022-11-22T00:57:29.046Z,56.42
2022-11-22T00:59:55.480Z,55.47
2022-11-22T01:02:21.860Z,57.53
2022-11-22T01:04:48.165Z,56.59
2022-11-22T01:07:14.453Z,57.50
2022-11-22T01:09:40.738Z,57.99
2022-11-22T01:12:06.995Z,57.33
2022-11-22T01:14:33.268Z,57.49
2022-11-22T01:16:59.565Z,56.94
2022-11-22T01:19:25.852Z,56.98
2022-11-22T01:21:52.156Z,56.54
2022-11-22T01:24:18.442Z,56.78
2022-11-22T01:26:44.750Z,56.87
2022-11-22T01:29:11.037Z,57.16
2022-11-22T01:31:37.328Z,57.03
2022-11-22T01:34:04.791Z,56.27
2022-11-22T01:36:31.053Z,55.55
2022-11-22T01:38:57.324Z,54.75
2022-11-22T01:41:23.600Z,55.41
2022-11-22T01:43:49.895Z,55.32
2022-11-22T01:46:18.725Z,56.82
2022-11-22T01:48:49.397Z,57.02
2022-11-22T01:51:17.457Z,56.78
2022-11-22T01:53:43.715Z,57.64
2022-11-22T01:56:12.147Z,55.96
2022-11-22T01:58:38.429Z,55.63
2022-11-22T02:01:04.765Z,56.07
2022-11-22T02:03:31.392Z,56.48
2022-11-22T02:05:57.725Z,56.58
2022-11-22T02:08:45.168Z,56.56
2022-11-22T02:11:11.452Z,56.77
2022-11-22T02:13:39.301Z,57.34
2022-11-22T02:16:05.564Z,57.46
2022-11-22T02:18:33.856Z,56.94
2022-11-22T02:21:00.156Z,57.45
2022-11-22T02:23:26.390Z,57.44
2022-11-22T02:25:56.241Z,57.79
2022-11-22T02:28:22.593Z,56.88
2022-11-22T02:30:48.936Z,57.58
2022-11-22T02:33:15.212Z,56.53
2022-11-22T02:35:41.905Z,56.51
2022-11-22T02:38:08.781Z,56.84
2022-11-22T02:40:37.178Z,57.42
2022-11-22T02:43:04.505Z,57.67
2022-11-22T02:45:30.781Z,56.86
2022-11-22T02:48:07.268Z,56.28
2022-11-22T02:50:33.600Z,56.97
2022-11-22T02:52:59.879Z,56.23
2022-11-22T02:55:26.157Z,56.92
2022-11-22T02:57:52.437Z,56.35
2022-11-22T03:00:18.829Z,57.91
2022-11-22T03:02:45.135Z,58.08
2022-11-22T03:05:11.471Z,58.23
2022-11-22T03:07:37.864Z,57.47
2022-11-22T03:10:04.279Z,58.20
2022-11-22T03:12:30.588Z,59.06
2022-11-22T03:14:56.872Z,58.83
2022-11-22T03:17:23.140Z,59.07
2022-11-22T03:19:49.412Z,59.24
2022-11-22T03:22:15.716Z,60.31
2022-11-22T03:24:41.980Z,60.72
2022-11-22T03:27:08.259Z,59.08
2022-11-22T03:29:34.610Z,58.49
2022-11-22T03:32:00.912Z,58.16
2022-11-22T03:34:27.191Z,57.56
2022-11-22T03:36:53.485Z,59.18
2022-11-22T03:39:19.778Z,60.07
2022-11-22T03:41:46.035Z,60.04
2022-11-22T03:44:12.344Z,60.84
2022-11-22T03:46:38.642Z,59.89
2022-11-22T03:49:05.031Z,59.05
2022-11-22T03:51:31.418Z,59.32
2022-11-22T03:53:57.764Z,58.90
2022-11-22T03:56:24.067Z,59.35
2022-11-22T03:58:50.341Z,59.89
2022-11-22T04:01:17.099Z,59.28
2022-11-22T04:03:43.489Z,58.98
2022-11-22T04:06:09.746Z,59.75
2022-11-22T04:08:36.121Z,58.84
2022-11-22T04:11:02.433Z,58.52
2022-11-22T04:13:48.697Z,57.92
2022-11-22T04:16:15.056Z,57.34
2022-11-22T04:18:41.446Z,57.46
2022-11-22T04:21:26.052Z,56.20
2022-11-22T04:24:12.301Z,56.46
2022-11-22T04:26:38.568Z,57.06
2022-11-22T04:29:12.086Z,57.45
2022-11-22T04:31:57.081Z,58.84
2022-11-22T04:34:23.366Z,59.30
2022-11-22T04:36:49.639Z,59.16
2022-11-22T04:39:15.909Z,59.52
2022-11-22T04:41:42.196Z,59.54
2022-11-22T04:44:27.749Z,59.60
2022-11-22T04:46:54.069Z,59.55
2022-11-22T04:49:20.339Z,59.02
2022-11-22T04:52:05.352Z,58.50
2022-11-22T04:54:31.604Z,58.50
2022-11-22T04:56:57.891Z,61.12
2022-11-22T04:59:24.176Z,62.17
2022-11-22T05:01:52.071Z,62.02
2022-11-22T05:04:18.327Z,60.67
2022-11-22T05:06:44.612Z,61.56
2022-11-22T05:09:10.869Z,61.40
2022-11-22T05:11:37.244Z,59.74
2022-11-22T05:14:04.247Z,58.61
2022-11-22T05:16:30.540Z,59.51
2022-11-22T05:18:59.743Z,58.12
2022-11-22T05:21:26.572Z,58.86
2022-11-22T05:23:55.831Z,59.61
2022-11-22T05:26:22.092Z,58.17
2022-11-22T05:28:48.495Z,58.68
2022-11-22T05:31:16.471Z,58.75
2022-11-22T05:33:43.797Z,58.28
2022-11-22T05:36:10.139Z,58.51
2022-11-22T05:38:37.568Z,57.67
2022-11-22T05:41:04.156Z,57.03
2022-11-22T05:43:30.494Z,56.73
2022-11-22T05:45:56.832Z,56.20
2022-11-22T05:48:23.118Z,56.25
2022-11-22T05:50:49.435Z,57.07
2022-11-22T05:53:15.713Z,57.79
2022-11-22T05:55:42.010Z,57.09
2022-11-22T05:58:08.290Z,56.65
2022-11-22T06:00:34.557Z,57.81
2022-11-22T06:03:01.660Z,60.75
2022-11-22T06:05:28.064Z,60.84
2022-11-22T06:07:56.795Z,59.58
2022-11-22T06:10:23.095Z,57.97
2022-11-22T06:12:49.365Z,59.16
2022-11-22T06:15:15.734Z,59.86
2022-11-22T06:17:42.295Z,59.05
2022-11-22T06:20:09.006Z,59.00
2022-11-22T06:22:35.300Z,59.10
2022-11-22T06:25:01.588Z,57.88
2022-11-22T06:27:27.861Z,58.45
2022-11-22T06:29:54.141Z,57.81
2022-11-22T06:32:20.433Z,58.93
2022-11-22T06:34:46.706Z,57.62
2022-11-22T06:37:14.983Z,57.55
2022-11-22T06:39:41.373Z,57.65
2022-11-22T06:42:07.656Z,58.29
2022-11-22T06:44:34.169Z,58.64
2022-11-22T06:47:00.445Z,59.81
2022-11-22T06:49:26.952Z,62.53
2022-11-22T06:51:53.556Z,62.66
2022-11-22T06:54:19.813Z,60.49
2022-11-22T06:56:46.144Z,59.25
2022-11-22T06:59:12.477Z,58.38
2022-11-22T07:01:38.917Z,58.77
2022-11-22T07:04:05.254Z,58.28
2022-11-22T07:06:32.488Z,61.17
2022-11-22T07:08:59.237Z,61.68
2022-11-22T07:11:26.232Z,60.50
2022-11-22T07:13:52.609Z,59.76
2022-11-22T07:16:19.632Z,58.56
2022-11-22T07:18:45.958Z,58.57
2022-11-22T07:21:13.778Z,59.11
2022-11-22T07:23:43.465Z,57.11
2022-11-22T07:26:10.014Z,57.21
2022-11-22T07:28:36.552Z,57.38
2022-11-22T07:31:03.425Z,56.95
2022-11-22T07:33:29.735Z,56.61
2022-11-22T07:35:56.047Z,57.43
2022-11-22T07:38:22.318Z,57.96
2022-11-22T07:40:48.704Z,58.39
2022-11-22T07:43:15.211Z,58.24
2022-11-22T07:45:41.484Z,59.08
2022-11-22T07:48:07.780Z,58.22
2022-11-22T07:50:34.067Z,58.34
2022-11-22T07:53:00.369Z,58.16
2022-11-22T07:55:26.862Z,59.08
2022-11-22T07:57:53.345Z,58.88
2022-11-22T08:00:19.752Z,58.45
2022-11-22T08:02:46.143Z,58.35
2022-11-22T08:05:12.493Z,57.99
2022-11-22T08:07:38.806Z,58.95
2022-11-22T08:10:05.360Z,58.57
2022-11-22T08:12:31.665Z,59.13
2022-11-22T08:14:57.928Z,58.92
2022-11-22T08:17:24.196Z,58.16
2022-11-22T08:19:53.359Z,58.50
2022-11-22T08:22:19.623Z,58.64
2022-11-22T08:24:45.908Z,58.27
2022-11-22T08:27:12.166Z,59.30
2022-11-22T08:29:38.462Z,58.30
2022-11-22T08:32:04.753Z,58.08
2022-11-22T08:34:31.028Z,58.57
2022-11-22T08:36:57.316Z,58.21
2022-11-22T08:39:23.697Z,56.97
2022-11-22T08:41:49.992Z,60.15
2022-11-22T08:44:16.273Z,58.64
2022-11-22T08:46:42.548Z,58.88
2022-11-22T08:49:10.500Z,58.11
2022-11-22T08:51:37.026Z,58.64
2022-11-22T08:54:03.283Z,59.33
2022-11-22T08:56:29.558Z,59.93
2022-11-22T08:58:55.955Z,60.35
2022-11-22T09:01:23.413Z,58.96
2022-11-22T09:03:49.811Z,58.77
2022-11-22T09:11:49.290Z,60.28
2022-11-22T09:14:15.597Z,61.75
2022-11-22T09:16:41.891Z,60.71
2022-11-22T09:19:08.306Z,59.27
2022-11-22T09:21:34.585Z,59.29
2022-11-22T09:24:00.932Z,59.43
2022-11-22T09:26:27.294Z,59.32
2022-11-22T09:28:53.572Z,59.80
2022-11-22T09:31:20.306Z,60.19
2022-11-22T09:33:46.757Z,58.43
2022-11-22T09:36:16.581Z,57.46
2022-11-22T09:38:42.857Z,58.60
2022-11-22T09:41:14.891Z,60.97
2022-11-22T09:43:44.134Z,61.94
2022-11-22T09:46:29.176Z,61.25
2022-11-22T09:48:58.441Z,61.59
2022-11-22T09:51:29.336Z,59.41
2022-11-22T09:54:00.000Z,58.43
2022-11-22T09:56:26.376Z,58.45
2022-11-22T09:58:53.570Z,58.01
2022-11-22T10:01:24.392Z,56.93
2022-11-22T10:04:17.143Z,57.08
2022-11-22T10:06:43.838Z,55.66
2022-11-22T10:09:10.055Z,55.89
2022-11-22T10:11:39.037Z,57.76
2022-11-22T10:14:09.370Z,57.04
2022-11-22T10:16:38.661Z,56.58
2022-11-22T10:19:15.436Z,55.91
2022-11-22T10:21:42.325Z,55.83
2022-11-22T10:24:13.100Z,55.58
2022-11-22T10:26:39.383Z,58.37
2022-11-22T10:29:08.639Z,59.55
2022-11-22T10:31:44.016Z,58.85
2022-11-22T10:34:22.542Z,59.61
2022-11-22T10:36:49.893Z,59.62
2022-11-22T10:39:22.373Z,58.50
2022-11-22T10:41:51.654Z,61.21
2022-11-22T10:44:20.379Z,60.16
2022-11-22T10:46:56.349Z,59.23
2022-11-22T10:49:23.050Z,57.95
2022-11-22T10:52:00.564Z,57.51
2022-11-22T10:54:45.720Z,57.09
2022-11-22T10:57:33.303Z,56.92
2022-11-22T11:00:18.488Z,54.42
2022-11-22T11:02:44.774Z,50.83
2022-11-22T11:05:12.354Z,58.23
2022-11-22T11:07:39.477Z,59.29
2022-11-22T11:10:19.436Z,59.36
2022-11-22T11:12:59.378Z,54.18
2022-11-22T11:15:31.625Z,53.80
2022-11-22T11:18:01.843Z,50.58
2022-11-22T11:20:37.718Z,51.67
2022-11-22T11:23:14.865Z,50.28
2022-11-22T11:25:43.253Z,51.50
2022-11-22T11:28:12.553Z,50.75
2022-11-22T11:30:42.861Z,50.82
2022-11-22T11:33:27.928Z,50.53
2022-11-22T11:36:14.383Z,49.89
2022-11-22T11:38:40.634Z,49.59
2022-11-22T11:41:25.333Z,49.22
2022-11-22T11:43:52.476Z,48.45
2022-11-22T11:46:22.324Z,49.96
2022-11-22T11:48:49.372Z,49.30
2022-11-22T11:51:24.943Z,49.59
2022-11-22T11:53:51.301Z,48.73
2022-11-22T11:56:27.305Z,49.37
2022-11-22T11:58:53.661Z,45.91
2022-11-22T12:01:20.535Z,46.99
2022-11-22T12:03:57.337Z,48.12
2022-11-22T12:06:27.134Z,47.73
2022-11-22T12:08:53.406Z,46.15
2022-11-22T12:11:21.311Z,46.07
2022-11-22T12:14:18.458Z,46.04
2022-11-22T12:16:46.110Z,44.35
2022-11-22T12:19:24.400Z,43.26
2022-11-22T12:22:29.408Z,44.39
2022-11-22T12:25:32.078Z,45.68
2022-11-22T12:28:12.171Z,47.52
2022-11-22T12:30:39.265Z,48.38
2022-11-22T12:33:05.535Z,48.07
2022-11-22T12:35:33.748Z,49.09
2022-11-22T12:38:03.021Z,48.13
2022-11-22T12:40:39.451Z,48.65
2022-11-22T12:43:07.530Z,49.82
2022-11-22T12:45:35.017Z,50.38
2022-11-22T12:48:03.041Z,49.86
2022-11-22T12:50:30.476Z,50.04
2022-11-22T12:53:13.401Z,49.06
2022-11-22T12:55:39.630Z,47.42
2022-11-22T12:58:24.616Z,47.45
2022-11-22T13:01:12.368Z,46.39
2022-11-22T13:03:47.884Z,45.53
2022-11-22T13:06:14.208Z,46.54
2022-11-22T13:09:00.335Z,46.48
2022-11-22T13:11:31.244Z,47.51
2022-11-22T13:14:04.915Z,48.33
2022-11-22T13:16:31.257Z,46.10
2022-11-22T13:18:58.881Z,46.72
2022-11-22T13:21:25.549Z,44.29
2022-11-22T13:23:51.800Z,43.51
2022-11-22T13:26:21.068Z,44.98
2022-11-22T13:28:47.340Z,43.58
2022-11-22T13:31:15.039Z,43.23
2022-11-22T13:33:54.575Z,44.52
2022-11-22T13:36:24.965Z,45.36
2022-11-22T13:38:52.268Z,47.54
2022-11-22T13:41:22.747Z,46.54
2022-11-22T13:43:50.291Z,45.38
2022-11-22T13:46:35.499Z,46.17
2022-11-22T13:49:32.444Z,46.23
2022-11-22T13:52:04.993Z,48.25
2022-11-22T13:54:37.067Z,47.56
2022-11-22T13:57:25.228Z,47.21
2022-11-22T14:00:09.750Z,45.92
2022-11-22T14:02:36.050Z,46.45
2022-11-22T14:05:02.329Z,45.45
2022-11-22T14:07:32.999Z,47.31
2022-11-22T14:09:59.757Z,47.93
2022-11-22T14:12:25.996Z,48.07
2022-11-22T14:14:52.256Z,47.37
2022-11-22T14:17:18.516Z,46.85
2022-11-22T14:19:50.124Z,46.94
2022-11-22T14:22:32.050Z,46.67
2022-11-22T14:25:04.477Z,46.29
2022-11-22T14:27:36.786Z,45.39
2022-11-22T14:30:06.208Z,46.82
2022-11-22T14:32:58.801Z,46.87
2022-11-22T14:35:29.467Z,46.40
2022-11-22T14:38:07.574Z,47.01
2022-11-22T14:40:40.369Z,46.25
2022-11-22T14:43:15.596Z,48.15
2022-11-22T14:45:49.660Z,46.92
2022-11-22T14:48:20.067Z,46.99
2022-11-22T14:51:04.582Z,46.65
2022-11-22T14:53:32.720Z,47.22
2022-11-22T14:56:12.508Z,47.03
2022-11-22T14:58:39.239Z,47.24
2022-11-22T15:01:14.984Z,48.09
2022-11-22T15:03:53.275Z,48.12
2022-11-22T15:09:23.698Z,47.50
2022-11-22T15:10:05.534Z,47.29
2022-11-22T15:12:49.995Z,47.92
2022-11-22T15:57:38.404Z,46.48
2022-11-22T16:00:18.968Z,46.21
2022-11-22T16:02:47.949Z,47.73
2022-11-22T16:06:08.000Z,47.27
2022-11-22T16:08:00.859Z,47.52
2022-11-22T16:10:37.076Z,48.23
2022-11-22T16:13:13.327Z,47.46
2022-11-22T16:15:39.688Z,47.66
2022-11-22T16:18:06.678Z,47.03
2022-11-22T16:20:33.601Z,47.34
2022-11-22T16:23:03.636Z,47.72
2022-11-22T16:25:33.377Z,47.21
2022-11-22T16:28:00.915Z,47.74
2022-11-22T16:30:27.183Z,47.34
2022-11-22T16:32:55.496Z,47.85
2022-11-22T16:35:29.566Z,47.26
2022-11-22T16:37:56.305Z,47.42
2022-11-22T16:40:22.664Z,46.74
2022-11-22T16:42:48.965Z,47.00
2022-11-22T16:45:16.364Z,47.34
2022-11-22T16:47:43.110Z,47.26
2022-11-22T16:50:12.929Z,47.34
2022-11-22T16:52:39.653Z,46.97
2022-11-22T16:55:06.588Z,46.66
2022-11-22T16:57:32.863Z,46.95
2022-11-22T16:59:59.138Z,47.49
2022-11-22T17:02:25.421Z,47.70
2022-11-22T17:04:51.709Z,46.63
2022-11-22T17:07:18.041Z,46.80
2022-11-22T17:09:44.393Z,46.52
2022-11-22T17:12:21.192Z,47.41
2022-11-22T17:14:48.448Z,47.68
2022-11-22T17:17:14.829Z,47.12
2022-11-22T17:19:56.586Z,47.37
2022-11-22T17:22:22.923Z,47.15
2022-11-22T17:24:49.211Z,47.04
2022-11-22T17:27:15.513Z,46.71
2022-11-22T17:29:50.308Z,46.80
2022-11-22T17:32:17.345Z,46.67
2022-11-22T17:34:43.666Z,46.64
2022-11-22T17:37:12.981Z,46.00
2022-11-22T17:39:39.349Z,46.01
2022-11-22T17:42:05.728Z,47.47
2022-11-22T17:44:32.030Z,46.78
2022-11-22T17:46:58.316Z,47.12
2022-11-22T17:49:24.601Z,47.06
2022-11-22T17:51:50.902Z,46.95
2022-11-22T17:54:17.200Z,46.48
2022-11-22T17:56:43.641Z,46.25
2022-11-22T17:59:09.929Z,46.81
2022-11-22T18:01:36.754Z,46.37
2022-11-22T18:04:03.033Z,46.14
2022-11-22T18:06:29.509Z,46.23
2022-11-22T18:08:55.793Z,46.61
2022-11-22T18:11:22.088Z,45.98
2022-11-22T18:13:48.365Z,46.39
2022-11-22T18:16:15.627Z,45.82
2022-11-22T18:18:56.700Z,45.73
2022-11-22T18:21:26.677Z,46.12
2022-11-22T18:23:53.008Z,47.14
2022-11-22T18:31:53.203Z,47.21
2022-11-22T18:34:20.313Z,46.57
2022-11-22T18:37:03.869Z,46.89
2022-11-22T18:39:31.885Z,46.68
2022-11-22T18:41:58.470Z,46.77
2022-11-22T18:44:24.784Z,47.27
2022-11-22T18:46:51.057Z,46.85
2022-11-22T18:49:17.341Z,46.99
2022-11-22T18:51:43.785Z,46.80
2022-11-22T18:54:10.561Z,47.19
2022-11-22T18:56:39.782Z,47.24
2022-11-22T18:59:10.532Z,47.43
2022-11-22T19:01:37.079Z,47.39
2022-11-22T19:04:03.597Z,48.46
2022-11-22T19:06:30.115Z,48.31
2022-11-22T19:08:56.458Z,47.87
2022-11-22T19:11:22.791Z,47.80
2022-11-22T19:13:49.119Z,48.08
2022-11-22T19:16:16.420Z,47.42
2022-11-22T19:18:43.348Z,47.31
2022-11-22T19:21:10.513Z,47.24
2022-11-22T19:23:36.912Z,48.73
2022-11-22T19:26:06.513Z,48.96
2022-11-22T19:28:32.857Z,48.31
2022-11-22T19:31:02.866Z,48.50
2022-11-22T19:33:29.148Z,48.16
2022-11-22T19:35:56.277Z,47.90
2022-11-22T19:38:22.570Z,48.33
2022-11-22T19:40:48.873Z,47.89
2022-11-22T19:43:16.659Z,47.99
2022-11-22T19:45:43.190Z,48.34
2022-11-22T19:48:09.456Z,47.95
2022-11-22T19:50:38.827Z,47.57
2022-11-22T19:53:05.306Z,46.99
2022-11-22T19:55:34.792Z,47.01
2022-11-22T19:58:01.077Z,47.05
2022-11-22T20:00:27.374Z,46.80
2022-11-22T20:02:53.641Z,46.47
2022-11-22T20:05:19.985Z,45.95
2022-11-22T20:07:46.290Z,47.06
2022-11-22T20:10:12.598Z,47.51
2022-11-22T20:12:38.994Z,47.18
2022-11-22T20:15:06.094Z,47.74
2022-11-22T20:17:32.355Z,48.20
2022-11-22T20:19:58.726Z,47.85
2022-11-22T20:22:25.002Z,48.28
2022-11-22T20:24:54.168Z,48.68
2022-11-22T20:27:24.651Z,48.69
2022-11-22T20:29:51.189Z,48.18
2022-11-22T20:32:18.103Z,48.76
2022-11-22T20:34:44.403Z,48.24
2022-11-22T20:37:10.710Z,48.15
2022-11-22T20:39:37.439Z,48.16
2022-11-22T20:42:32.376Z,48.35
2022-11-22T20:44:50.503Z,48.20
2022-11-22T20:47:16.792Z,47.97
2022-11-22T20:49:45.601Z,47.72
2022-11-22T20:52:12.128Z,47.60
2022-11-22T20:54:38.477Z,47.21
2022-11-22T20:57:04.740Z,47.73
2022-11-22T20:59:31.039Z,47.20
2022-11-22T21:01:57.327Z,47.77
2022-11-22T21:04:23.624Z,47.61
2022-11-22T21:06:49.899Z,46.58
2022-11-22T21:09:16.242Z,47.68
2022-11-22T21:11:45.233Z,47.36
2022-11-22T21:14:11.742Z,46.78
2022-11-22T21:16:38.106Z,47.38
2022-11-22T21:19:07.355Z,48.24
2022-11-22T21:21:34.759Z,47.98
2022-11-22T21:24:01.649Z,48.58
2022-11-22T21:26:27.915Z,48.37
2022-11-22T21:28:54.368Z,48.65
2022-11-22T21:31:20.927Z,48.21
2022-11-22T21:33:47.232Z,47.48
2022-11-22T21:36:13.643Z,47.71
2022-11-22T21:38:39.922Z,48.16
2022-11-22T21:41:37.698Z,47.26
2022-11-22T21:43:56.706Z,47.16
2022-11-22T21:46:23.417Z,47.57
2022-11-22T21:48:50.371Z,47.27
2022-11-22T21:51:16.798Z,47.24
2022-11-22T21:53:43.120Z,47.46
2022-11-22T21:56:09.395Z,47.46
2022-11-22T21:58:35.679Z,48.08
2022-11-22T22:01:03.616Z,48.08
2022-11-22T22:03:29.998Z,46.64
2022-11-22T22:05:56.630Z,46.63
2022-11-22T22:08:22.959Z,46.32
2022-11-22T22:10:49.542Z,46.88
2022-11-22T22:13:16.070Z,46.88
2022-11-22T22:15:42.349Z,47.75
2022-11-22T22:18:08.660Z,46.44
2022-11-22T22:20:34.931Z,46.01
2022-11-22T22:23:01.214Z,46.55
2022-11-22T22:25:27.817Z,46.30
2022-11-22T22:27:55.730Z,46.31
2022-11-22T22:30:23.004Z,47.07
2022-11-22T22:32:49.282Z,47.70
2022-11-22T22:35:15.582Z,49.31
2022-11-22T22:37:41.924Z,49.58
2022-11-22T22:40:08.211Z,50.49
2022-11-22T22:42:35.165Z,49.80
2022-11-22T22:45:01.463Z,49.34
2022-11-22T22:47:29.580Z,48.00
2022-11-22T22:49:55.898Z,49.06
2022-11-22T22:52:22.233Z,47.94
2022-11-22T22:54:48.569Z,47.68
2022-11-22T22:57:14.832Z,48.41
2022-11-22T22:59:41.083Z,48.76
2022-11-22T23:02:07.772Z,48.54
2022-11-22T23:04:34.069Z,47.40
2022-11-22T23:07:00.349Z,47.84
2022-11-22T23:09:26.624Z,48.63
2022-11-22T23:12:11.170Z,48.07
2022-11-22T23:14:39.521Z,47.90
2022-11-22T23:17:06.466Z,48.66
2022-11-22T23:19:32.921Z,48.57
2022-11-22T23:21:59.556Z,48.54
2022-11-22T23:24:25.854Z,47.86
2022-11-22T23:26:52.210Z,48.26
2022-11-22T23:29:18.608Z,48.42
2022-11-22T23:31:44.902Z,48.26
2022-11-22T23:34:11.238Z,48.24
2022-11-22T23:36:40.651Z,48.38
2022-11-22T23:39:07.618Z,48.36
2022-11-22T23:41:33.935Z,48.10
2022-11-22T23:44:00.226Z,47.80
2022-11-22T23:46:28.571Z,48.08
2022-11-22T23:48:55.548Z,48.22
2022-11-22T23:51:21.888Z,47.99
2022-11-22T23:53:48.161Z,48.75
2022-11-22T23:56:20.303Z,48.92
2022-11-22T23:58:48.006Z,48.78
